Time;durP1;ratioP1;P1;durP2;ratioP2;P2;SDS_P1;SDS_P2;PMS_P1;PMS_P2;Temp;Humidity;BMP_temperature;BMP_pressure;BME280_temperature;BME280_humidity;BME280_pressure;Samples;Min_cycle;Max_cycle;Signal;HPM_P1;HPM_P2
2022/03/22 00:00:33;;;;;;;22.52;14.50;;;;;;;14.61;36.79;101352.72;5109836;28;20066;-60
2022/03/22 00:03:00;;;;;;;21.52;14.02;;;;;;;14.59;36.67;101346.66;5109792;28;20083;-59
2022/03/22 00:05:26;;;;;;;21.05;14.32;;;;;;;14.55;36.87;101345.94;5111130;28;20050;-61
2022/03/22 00:07:53;;;;;;;21.30;14.70;;;;;;;14.54;36.49;101348.69;5110976;28;20104;-60
2022/03/22 00:10:20;;;;;;;21.05;14.82;;;;;;;14.50;36.87;101352.41;5110961;28;20055;-59
2022/03/22 00:12:49;;;;;;;23.33;14.55;;;;;;;14.47;36.74;101353.41;5111107;28;20052;-60
2022/03/22 00:15:16;;;;;;;21.73;15.32;;;;;;;14.44;37.07;101350.91;5111010;28;20058;-59
2022/03/22 00:18:04;;;;;;;25.67;14.77;;;;;;;14.41;37.06;101354.56;5111266;28;20055;-61
2022/03/22 00:20:31;;;;;;;24.58;14.50;;;;;;;14.40;37.08;101358.16;5109332;28;20125;-60
2022/03/22 00:22:58;;;;;;;22.00;14.68;;;;;;;14.39;37.06;101351.13;5110872;28;20093;-60
2022/03/22 00:25:24;;;;;;;21.58;14.02;;;;;;;14.37;37.02;101350.34;5111193;28;20048;-60
2022/03/22 00:27:55;;;;;;;21.42;14.07;;;;;;;14.36;36.95;101355.72;5110857;28;20499;-61
2022/03/22 00:30:30;;;;;;;24.42;14.00;;;;;;;14.30;37.25;101356.84;5109185;28;20063;-62
2022/03/22 00:32:59;;;;;;;20.38;14.05;;;;;;;14.31;36.96;101356.78;5109516;28;20051;-61
2022/03/22 00:35:28;;;;;;;24.67;14.68;;;;;;;14.28;37.24;101359.56;5109375;28;20047;-60
2022/03/22 00:37:58;;;;;;;19.45;14.30;;;;;;;14.25;37.04;101359.72;5109554;28;20047;-60
2022/03/22 00:40:26;;;;;;;20.85;13.85;;;;;;;14.22;37.30;101357.22;5109446;28;20056;-61
2022/03/22 00:42:53;;;;;;;21.88;13.82;;;;;;;14.18;36.78;101359.16;5109437;28;20101;-60
2022/03/22 00:45:22;;;;;;;22.40;15.40;;;;;;;14.17;37.30;101361.88;5109346;28;20500;-60
2022/03/22 00:47:51;;;;;;;22.73;14.35;;;;;;;14.12;37.28;101359.44;5110866;28;20047;-59
2022/03/22 00:50:21;;;;;;;23.25;13.60;;;;;;;14.08;37.36;101363.16;5109265;28;20601;-60
2022/03/22 00:52:48;;;;;;;20.40;13.07;;;;;;;14.06;37.06;101357.91;5110836;28;20462;-60
2022/03/22 00:55:15;;;;;;;20.48;13.88;;;;;;;14.03;37.08;101360.72;5109194;28;20051;-60
2022/03/22 00:57:42;;;;;;;20.85;13.85;;;;;;;14.00;36.65;101370.56;5110656;28;20059;-62
2022/03/22 01:00:12;;;;;;;19.98;13.15;;;;;;;13.96;37.18;101359.28;5108767;28;20043;-60
2022/03/22 01:02:42;;;;;;;25.50;14.77;;;;;;;13.92;36.83;101368.28;5109049;28;20100;-60
2022/03/22 01:05:13;;;;;;;20.45;14.18;;;;;;;13.88;37.01;101367.56;5109114;28;20079;-60
2022/03/22 01:07:41;;;;;;;26.85;15.15;;;;;;;13.87;37.05;101367.66;5110455;28;20048;-59
2022/03/22 01:10:10;;;;;;;20.92;13.80;;;;;;;13.82;37.20;101362.53;5109053;28;20047;-60
2022/03/22 01:12:40;;;;;;;23.35;13.65;;;;;;;13.79;37.07;101368.84;5110382;28;20573;-58
2022/03/22 01:15:15;;;;;;;22.98;13.98;;;;;;;13.76;37.27;101368.13;5110345;28;20596;-61
2022/03/22 01:17:47;;;;;;;21.13;13.52;;;;;;;13.73;37.13;101365.59;5109234;28;20062;-60
2022/03/22 01:20:14;;;;;;;21.95;14.20;;;;;;;13.70;37.10;101357.78;5111462;28;20549;-60
2022/03/22 01:22:44;;;;;;;23.85;14.60;;;;;;;13.66;37.26;101357.09;5113191;28;20483;-59
2022/03/22 01:25:14;;;;;;;22.00;14.20;;;;;;;13.61;37.25;101359.91;5112975;28;20073;-61
2022/03/22 01:27:42;;;;;;;22.90;14.13;;;;;;;13.59;37.46;101358.25;5113342;28;20475;-62
2022/03/22 01:30:12;;;;;;;23.92;14.43;;;;;;;13.52;37.42;101355.91;5112839;28;20457;-60
2022/03/22 01:32:39;;;;;;;21.17;13.98;;;;;;;13.45;37.48;101359.69;5113073;28;20495;-62
2022/03/22 01:35:09;;;;;;;20.52;14.02;;;;;;;13.38;37.54;101351.19;5113098;28;20146;-60
2022/03/22 01:37:37;;;;;;;20.25;13.43;;;;;;;13.31;37.49;101352.38;5112903;28;20118;-61
2022/03/22 01:40:06;;;;;;;19.17;14.07;;;;;;;13.26;37.81;101354.34;5112853;28;20055;-60
2022/03/22 01:42:34;;;;;;;20.90;13.38;;;;;;;13.22;37.59;101344.81;5112986;28;20055;-62
2022/03/22 01:45:02;;;;;;;22.35;14.23;;;;;;;13.18;37.75;101345.88;5112911;28;20047;-60
2022/03/22 01:47:29;;;;;;;20.40;13.88;;;;;;;13.13;37.71;101341.63;5114089;28;20051;-61
2022/03/22 01:49:55;;;;;;;21.02;14.45;;;;;;;13.10;37.88;101338.28;5113879;28;20093;-62
2022/03/22 01:52:24;;;;;;;22.08;14.38;;;;;;;13.06;37.81;101337.56;5113809;28;20499;-60
2022/03/22 01:54:55;;;;;;;22.40;14.15;;;;;;;13.02;37.84;101341.25;5114290;28;20052;-62
2022/03/22 01:57:24;;;;;;;24.40;13.85;;;;;;;13.00;37.80;101337.78;5113864;28;20051;-60
2022/03/22 01:59:51;;;;;;;24.20;13.65;;;;;;;12.96;37.80;101338.84;5112491;28;20055;-60
2022/03/22 02:07:50;;;;;;;22.15;13.90;;;;;;;12.85;38.07;101334.00;5113738;28;20044;-62
2022/03/22 02:10:17;;;;;;;21.45;13.43;;;;;;;12.81;38.25;101343.84;5113520;28;20495;-60
2022/03/22 02:12:45;;;;;;;21.55;13.40;;;;;;;12.78;38.23;101336.03;5113441;28;20044;-61
2022/03/22 02:15:13;;;;;;;23.10;13.55;;;;;;;12.76;38.31;101341.38;5113532;27;20245;-60
2022/03/22 02:17:41;;;;;;;24.13;14.18;;;;;;;12.76;38.23;101341.38;5112450;28;20100;-62
2022/03/22 02:20:09;;;;;;;22.80;13.05;;;;;;;12.77;38.28;101339.59;5113447;28;20056;-60
2022/03/22 02:23:00;;;;;;;25.73;13.48;;;;;;;12.74;38.56;101343.25;5095098;28;20104;-61
2022/03/22 02:25:27;;;;;;;23.48;13.65;;;;;;;12.79;38.26;101335.13;5111961;28;20040;-60
2022/03/22 02:27:53;;;;;;;20.65;13.75;;;;;;;12.79;38.35;101339.56;5113434;28;20051;-60
2022/03/22 02:30:21;;;;;;;21.35;13.07;;;;;;;12.76;38.12;101329.97;5113198;28;20044;-61
2022/03/22 02:32:56;;;;;;;22.88;14.23;;;;;;;12.73;38.55;101336.25;5111890;28;20500;-61
2022/03/22 02:35:23;;;;;;;21.23;13.13;;;;;;;12.74;38.13;101334.44;5111794;28;20484;-59
2022/03/22 02:37:50;;;;;;;21.30;14.20;;;;;;;12.74;38.06;101331.81;5111790;28;20056;-58
2022/03/22 02:40:18;;;;;;;23.33;14.27;;;;;;;12.75;38.39;101333.53;5113274;28;20109;-60
2022/03/22 02:42:50;;;;;;;19.95;13.68;;;;;;;12.75;38.32;101333.53;5112840;28;20059;-60
2022/03/22 02:45:18;;;;;;;23.17;13.63;;;;;;;12.76;38.22;101341.38;5111590;28;20054;-60
2022/03/22 02:47:44;;;;;;;21.10;12.40;;;;;;;12.78;38.06;101338.69;5111524;28;20491;-60
2022/03/22 02:50:12;;;;;;;20.33;13.02;;;;;;;12.77;38.21;101339.59;5112445;28;20047;-59
2022/03/22 02:52:40;;;;;;;22.10;12.95;;;;;;;12.77;38.21;101337.84;5111350;28;20105;-60
2022/03/22 02:55:09;;;;;;;21.05;13.48;;;;;;;12.77;38.30;101343.13;5111589;28;20445;-60
2022/03/22 02:57:37;;;;;;;24.73;13.43;;;;;;;12.77;38.37;101337.84;5112449;28;20043;-59
2022/03/22 03:00:06;;;;;;;21.98;13.45;;;;;;;12.76;38.36;101338.75;5111026;28;20047;-60
2022/03/22 03:02:41;;;;;;;24.13;14.65;;;;;;;12.71;38.58;101342.50;5112729;27;20097;-60
2022/03/22 03:05:08;;;;;;;21.65;14.00;;;;;;;12.69;38.26;101336.41;5112265;28;20054;-60
2022/03/22 03:07:35;;;;;;;19.98;13.75;;;;;;;12.65;38.46;101335.69;5110981;28;20503;-61
2022/03/22 03:10:02;;;;;;;23.10;14.65;;;;;;;12.58;38.30;101340.38;5112155;27;20044;-60
2022/03/22 03:12:29;;;;;;;23.00;14.25;;;;;;;12.54;38.21;101335.25;5112150;28;20052;-59
2022/03/22 03:14:55;;;;;;;23.65;13.93;;;;;;;12.51;38.49;101338.88;5112219;27;20051;-60
2022/03/22 03:17:22;;;;;;;24.05;14.88;;;;;;;12.49;38.47;101335.44;5112086;28;20397;-60
2022/03/22 03:19:49;;;;;;;23.10;14.38;;;;;;;12.45;38.73;101339.97;5111911;28;20717;-60
2022/03/22 03:22:15;;;;;;;22.20;14.70;;;;;;;12.43;38.65;101338.31;5112159;28;20067;-60
2022/03/22 03:24:42;;;;;;;23.23;14.23;;;;;;;12.42;38.61;101339.25;5111997;28;20048;-60
2022/03/22 03:27:08;;;;;;;23.35;14.68;;;;;;;12.38;38.55;101334.06;5111798;27;20097;-59
2022/03/22 03:29:35;;;;;;;22.63;13.70;;;;;;;12.37;38.55;101335.00;5111668;28;20100;-60
2022/03/22 03:32:01;;;;;;;19.95;13.15;;;;;;;12.40;38.70;101349.03;5111747;27;20467;-60
2022/03/22 03:34:28;;;;;;;23.35;14.43;;;;;;;12.40;38.69;101352.50;5111830;28;20105;-59
2022/03/22 03:36:54;;;;;;;25.40;14.13;;;;;;;12.42;38.65;101347.16;5111901;28;20051;-60
2022/03/22 03:39:21;;;;;;;21.63;14.35;;;;;;;12.42;38.73;101352.44;5110294;28;20128;-58
2022/03/22 03:41:53;;;;;;;20.73;14.40;;;;;;;12.43;38.70;101351.53;5111594;28;20458;-61
2022/03/22 03:47:07;;;;;;;24.80;13.48;;;;;;;12.45;38.47;101352.34;5111664;28;20043;-59
2022/03/22 03:49:37;;;;;;;24.63;14.18;;;;;;;12.43;38.50;101352.41;5111286;28;20055;-61
2022/03/22 03:52:10;;;;;;;21.60;13.55;;;;;;;12.42;38.98;101355.09;5111475;28;20462;-61
2022/03/22 03:54:37;;;;;;;22.00;12.93;;;;;;;12.45;38.59;101357.63;5111503;28;20051;-59
2022/03/22 03:57:05;;;;;;;21.55;13.48;;;;;;;12.43;38.70;101355.03;5110988;28;20054;-62
2022/03/22 03:59:34;;;;;;;24.67;13.88;;;;;;;12.45;38.82;101361.09;5109773;28;20051;-64
2022/03/22 04:02:01;;;;;;;19.27;13.07;;;;;;;12.44;38.96;101361.16;5111026;28;20389;-60
2022/03/22 04:04:28;;;;;;;21.63;13.65;;;;;;;12.45;38.81;101360.25;5111180;28;20043;-60
2022/03/22 04:06:55;;;;;;;22.05;13.88;;;;;;;12.46;38.87;101348.78;5111157;28;20483;-59
2022/03/22 04:09:22;;;;;;;23.50;13.75;;;;;;;12.47;38.89;101363.69;5109584;28;20043;-61
2022/03/22 04:11:49;;;;;;;21.77;13.85;;;;;;;12.48;38.83;101362.75;5110842;28;20725;-59
2022/03/22 04:14:15;;;;;;;21.23;14.00;;;;;;;12.47;38.74;101363.69;5111066;28;20052;-60
2022/03/22 04:16:42;;;;;;;21.20;13.43;;;;;;;12.48;38.60;101363.63;5111222;28;20051;-62
2022/03/22 04:19:09;;;;;;;23.67;13.52;;;;;;;12.48;38.66;101368.91;5111020;28;20491;-60
2022/03/22 04:21:37;;;;;;;24.55;14.32;;;;;;;12.49;38.52;101370.63;5111007;28;20052;-59
2022/03/22 04:24:08;;;;;;;19.75;13.70;;;;;;;12.48;38.47;101368.91;5110768;28;20047;-59
2022/03/22 04:26:36;;;;;;;23.92;13.48;;;;;;;12.47;38.62;101368.97;5111062;27;20673;-60
2022/03/22 04:34:39;;;;;;;20.00;13.48;;;;;;;12.44;39.00;101371.72;5110805;28;20112;-60
2022/03/22 04:37:07;;;;;;;20.75;13.02;;;;;;;12.43;38.40;101368.25;5111161;28;20097;-59
2022/03/22 04:39:35;;;;;;;23.15;13.52;;;;;;;12.42;38.48;101370.94;5110700;28;20492;-59
2022/03/22 04:42:02;;;;;;;20.67;14.13;;;;;;;12.40;38.56;101370.16;5110718;28;20393;-60
2022/03/22 04:44:29;;;;;;;26.23;14.75;;;;;;;12.37;38.45;101376.38;5110728;28;20083;-60
2022/03/22 04:46:56;;;;;;;23.67;13.55;;;;;;;12.35;38.48;101373.81;5110688;28;20136;-60
2022/03/22 04:49:25;;;;;;;22.45;14.20;;;;;;;12.32;38.42;101379.22;5109075;28;20066;-60
2022/03/22 04:57:24;;;;;;;22.23;12.73;;;;;;;12.31;38.37;101376.63;5114838;28;20503;-61
2022/03/22 04:59:51;;;;;;;23.75;14.07;;;;;;;12.28;38.64;101374.97;5112924;28;20549;-62
2022/03/22 05:02:17;;;;;;;22.35;14.77;;;;;;;12.26;38.44;101379.44;5114685;28;20051;-60
2022/03/22 05:04:44;;;;;;;19.75;13.45;;;;;;;12.24;38.39;101374.22;5114708;28;20093;-59
2022/03/22 05:07:11;;;;;;;21.58;13.70;;;;;;;12.23;38.47;101376.94;5114537;28;20047;-59
2022/03/22 05:09:38;;;;;;;21.83;13.10;;;;;;;12.20;38.71;101377.91;5114361;28;20048;-62
2022/03/22 05:12:05;;;;;;;22.35;13.55;;;;;;;12.20;38.65;101384.97;5114711;28;20176;-59
2022/03/22 05:14:32;;;;;;;22.30;13.88;;;;;;;12.18;38.65;101385.00;5114970;28;20073;-59
2022/03/22 05:16:58;;;;;;;21.10;13.38;;;;;;;12.18;38.60;101392.09;5114947;28;20040;-59
2022/03/22 05:19:26;;;;;;;24.42;14.48;;;;;;;12.15;38.55;101386.91;5114821;28;20238;-63
2022/03/22 05:21:52;;;;;;;20.85;13.25;;;;;;;12.15;38.53;101386.91;5114563;28;20431;-59
2022/03/22 05:24:20;;;;;;;22.60;13.95;;;;;;;12.14;38.40;101390.47;5114438;28;20048;-59
2022/03/22 05:26:46;;;;;;;20.83;14.05;;;;;;;12.12;38.48;101386.09;5113306;28;20055;-60
2022/03/22 05:29:13;;;;;;;21.38;14.60;;;;;;;12.12;38.53;101393.16;5114449;28;20058;-60
2022/03/22 05:31:40;;;;;;;25.10;15.45;;;;;;;12.09;38.67;101394.16;5114453;28;20051;-60
2022/03/22 05:34:07;;;;;;;20.08;13.90;;;;;;;12.07;38.77;101392.50;5114153;28;20047;-60
2022/03/22 05:36:34;;;;;;;25.38;14.32;;;;;;;12.03;38.72;101394.31;5114436;28;20059;-60
2022/03/22 05:39:00;;;;;;;21.83;13.77;;;;;;;11.99;38.72;101395.34;5114110;28;20112;-59
2022/03/22 05:41:27;;;;;;;20.17;13.73;;;;;;;11.97;38.86;101403.31;5113994;28;20063;-60
2022/03/22 05:43:53;;;;;;;24.75;14.20;;;;;;;11.94;38.92;101403.47;5114055;28;20055;-59
2022/03/22 05:46:20;;;;;;;19.10;13.45;;;;;;;11.92;39.04;101402.63;5113724;28;20055;-59
2022/03/22 05:48:48;;;;;;;20.13;13.93;;;;;;;11.90;39.04;101403.59;5112364;28;20060;-59
2022/03/22 05:51:19;;;;;;;24.40;14.65;;;;;;;11.90;39.05;101398.34;5113681;28;20059;-60
2022/03/22 05:53:46;;;;;;;22.85;13.80;;;;;;;11.90;38.97;101406.25;5113679;28;20101;-59
2022/03/22 05:56:13;;;;;;;23.15;14.52;;;;;;;11.90;39.04;101399.22;5113709;28;20109;-61
2022/03/22 05:58:40;;;;;;;24.73;14.70;;;;;;;11.90;38.79;101404.47;5112443;28;20054;-59
2022/03/22 06:01:06;;;;;;;22.08;14.52;;;;;;;11.91;38.90;101405.31;5113046;27;20118;-60
2022/03/22 06:03:33;;;;;;;24.95;14.48;;;;;;;11.90;39.04;101407.13;5113891;28;20044;-61
2022/03/22 06:06:00;;;;;;;24.65;13.70;;;;;;;11.92;38.94;101407.06;5111953;28;20488;-61
2022/03/22 06:08:29;;;;;;;23.00;14.45;;;;;;;11.93;38.96;101406.16;5113565;28;20100;-63
2022/03/22 06:10:56;;;;;;;23.33;13.70;;;;;;;11.96;38.89;101403.41;5112360;28;20082;-59
2022/03/22 06:13:23;;;;;;;21.52;13.10;;;;;;;11.99;38.84;101405.91;5112520;28;20064;-60
2022/03/22 06:15:51;;;;;;;22.13;14.20;;;;;;;12.02;38.89;101408.44;5113634;28;20043;-61
2022/03/22 06:18:19;;;;;;;19.08;13.45;;;;;;;12.07;38.72;101405.69;5112200;28;20051;-60
2022/03/22 06:20:45;;;;;;;22.00;14.18;;;;;;;12.13;38.54;101408.09;5113044;28;20051;-62
2022/03/22 06:23:13;;;;;;;23.63;14.43;;;;;;;12.19;38.52;101409.66;5113089;28;20055;-60
2022/03/22 06:25:41;;;;;;;24.23;14.02;;;;;;;12.25;38.47;101414.69;5112207;28;20059;-61
2022/03/22 06:28:09;;;;;;;23.45;13.65;;;;;;;12.31;38.42;101418.88;5113204;28;20047;-60
2022/03/22 06:30:37;;;;;;;20.42;13.68;;;;;;;12.37;38.58;101421.28;5113086;28;20047;-60
2022/03/22 06:33:17;;;;;;;19.40;12.93;;;;;;;12.43;38.94;101422.81;5113056;28;20564;-61
2022/03/22 06:35:45;;;;;;;18.80;12.32;;;;;;;12.52;38.40;101430.41;5111928;28;20044;-60
2022/03/22 06:38:12;;;;;;;21.10;12.82;;;;;;;12.57;38.81;101431.09;5111674;28;20063;-60
2022/03/22 06:40:39;;;;;;;23.17;12.60;;;;;;;12.62;38.39;101439.72;5112813;28;20436;-59
2022/03/22 06:43:10;;;;;;;22.77;12.73;;;;;;;12.68;38.45;101443.03;5112880;28;20051;-60
2022/03/22 06:45:37;;;;;;;17.95;12.82;;;;;;;12.74;38.50;101434.84;5112788;28;20096;-60
2022/03/22 06:48:06;;;;;;;21.90;12.38;;;;;;;12.80;38.49;101445.19;5112569;28;20043;-60
2022/03/22 06:50:34;;;;;;;19.67;12.05;;;;;;;12.85;38.41;101445.88;5111279;28;20043;-61
2022/03/22 06:53:02;;;;;;;21.48;13.15;;;;;;;12.90;38.37;101445.69;5111020;28;20051;-62
2022/03/22 06:55:29;;;;;;;21.75;13.38;;;;;;;12.95;38.46;101443.72;5111100;28;20055;-61
2022/03/22 06:57:56;;;;;;;23.92;13.75;;;;;;;12.99;38.52;101447.09;5111990;28;20062;-62
2022/03/22 07:00:23;;;;;;;18.58;13.10;;;;;;;13.01;38.61;101437.34;5112135;28;20381;-60
2022/03/22 07:02:50;;;;;;;21.88;14.38;;;;;;;13.03;38.35;101444.28;5111185;28;20407;-62
2022/03/22 07:05:17;;;;;;;21.38;14.18;;;;;;;13.05;38.44;101444.22;5112280;27;20059;-62
2022/03/22 07:07:44;;;;;;;24.20;13.65;;;;;;;13.06;38.39;101438.00;5112442;28;20047;-61
2022/03/22 07:10:13;;;;;;;20.98;13.63;;;;;;;13.05;38.46;101452.16;5110399;28;20043;-61
2022/03/22 07:13:09;;;;;;;22.10;13.30;;;;;;;13.03;38.50;101452.22;5110941;28;20059;-62
2022/03/22 07:15:37;;;;;;;23.48;13.45;;;;;;;13.08;38.39;101448.53;5108660;28;20051;-61
2022/03/22 07:18:07;;;;;;;21.35;12.80;;;;;;;13.12;38.32;101456.25;5109849;28;20086;-63
2022/03/22 07:20:34;;;;;;;23.95;13.85;;;;;;;13.15;38.27;101457.91;5110337;28;20403;-61
2022/03/22 07:23:02;;;;;;;21.95;14.25;;;;;;;13.19;38.12;101458.66;5110174;28;20074;-60
2022/03/22 07:25:29;;;;;;;20.00;13.00;;;;;;;13.23;38.11;101461.09;5111241;28;20047;-64
2022/03/22 07:27:56;;;;;;;25.90;14.93;;;;;;;13.28;38.16;101460.94;5110179;28;20054;-61
2022/03/22 07:30:23;;;;;;;22.73;12.73;;;;;;;13.33;37.93;101463.38;5110432;28;20091;-61
2022/03/22 07:32:49;;;;;;;19.55;13.05;;;;;;;13.37;37.80;101463.19;5111825;28;20056;-60
2022/03/22 07:35:19;;;;;;;20.35;13.32;;;;;;;13.43;38.03;101462.09;5111749;28;20105;-61
2022/03/22 07:37:48;;;;;;;24.52;14.25;;;;;;;13.49;37.86;101466.31;5111582;28;20092;-60
2022/03/22 07:40:15;;;;;;;23.30;13.77;;;;;;;13.55;37.66;101468.66;5110533;28;20113;-60
2022/03/22 07:42:42;;;;;;;25.08;14.15;;;;;;;13.59;37.57;101469.38;5111495;28;20048;-61
2022/03/22 07:45:10;;;;;;;21.80;14.48;;;;;;;13.64;37.55;101464.78;5111677;28;20047;-64
2022/03/22 07:47:38;;;;;;;22.52;14.55;;;;;;;13.69;37.58;101468.09;5110188;28;20044;-63
2022/03/22 07:53:05;;;;;;;21.02;14.55;;;;;;;13.80;37.48;101462.34;5111665;28;20056;-60
2022/03/22 07:55:41;;;;;;;22.07;15.27;;;;;;;13.86;37.26;101461.22;5111529;28;20054;-60
2022/03/22 07:58:09;;;;;;;20.88;14.23;;;;;;;13.90;37.55;101461.00;5110154;28;20047;-61
2022/03/22 08:00:38;;;;;;;23.48;15.15;;;;;;;13.93;37.41;101466.19;5111015;28;20105;-60
2022/03/22 08:03:09;;;;;;;21.33;14.40;;;;;;;13.99;37.36;101464.19;5110088;28;20058;-62
2022/03/22 08:05:37;;;;;;;20.70;14.13;;;;;;;14.03;37.31;101471.94;5109921;28;20527;-60
2022/03/22 08:08:05;;;;;;;25.88;14.20;;;;;;;14.07;37.53;101473.53;5110081;28;20047;-60
2022/03/22 08:10:51;;;;;;;22.30;13.57;;;;;;;14.15;37.28;101470.53;5111261;28;20096;-62
2022/03/22 08:13:19;;;;;;;23.08;15.25;;;;;;;14.20;37.28;101476.47;5111105;28;20044;-61
2022/03/22 08:15:45;;;;;;;22.35;14.02;;;;;;;14.27;37.25;101478.81;5108965;28;20209;-62
2022/03/22 08:18:12;;;;;;;25.85;14.93;;;;;;;14.30;37.27;101474.28;5109155;28;20055;-60
2022/03/22 08:20:39;;;;;;;19.38;13.98;;;;;;;14.37;37.39;101480.16;5109837;28;20044;-60
2022/03/22 08:23:07;;;;;;;20.30;14.60;;;;;;;14.42;37.27;101471.97;5110475;28;20592;-60
2022/03/22 08:25:38;;;;;;;21.30;13.90;;;;;;;14.48;37.18;101476.13;5111124;28;20040;-61
2022/03/22 08:28:09;;;;;;;22.80;14.15;;;;;;;14.55;36.98;101481.06;5110169;28;20047;-61
2022/03/22 08:30:37;;;;;;;22.60;14.07;;;;;;;14.64;37.08;101481.59;5109457;28;20055;-63
2022/03/22 08:33:07;;;;;;;20.02;14.40;;;;;;;14.70;36.88;101483.97;5109458;28;20063;-62
2022/03/22 08:35:36;;;;;;;19.67;14.45;;;;;;;14.77;36.97;101481.91;5109149;28;20051;-61
2022/03/22 08:38:03;;;;;;;23.85;15.10;;;;;;;14.82;36.96;101479.91;5110634;28;20051;-61
2022/03/22 08:40:30;;;;;;;20.20;13.80;;;;;;;14.89;36.76;101480.47;5110654;28;20063;-61
2022/03/22 08:42:57;;;;;;;21.23;13.85;;;;;;;14.94;36.94;101489.94;5111082;28;20040;-61
2022/03/22 08:45:25;;;;;;;20.85;14.00;;;;;;;14.99;36.80;101489.69;5109592;28;20052;-60
2022/03/22 08:47:53;;;;;;;19.33;13.73;;;;;;;15.05;36.30;101483.25;5109508;28;20546;-60
2022/03/22 08:50:25;;;;;;;20.05;14.05;;;;;;;15.12;36.53;101479.38;5110201;28;20044;-61
2022/03/22 08:52:56;;;;;;;22.27;14.73;;;;;;;15.19;36.25;101478.16;5110795;28;20120;-60
2022/03/22 08:55:24;;;;;;;20.95;13.88;;;;;;;15.26;36.15;101484.00;5109277;28;20051;-62
2022/03/22 08:57:52;;;;;;;22.38;14.02;;;;;;;15.34;36.30;101484.50;5109383;28;20044;-60
2022/03/22 09:00:20;;;;;;;19.60;13.30;;;;;;;15.40;36.00;101485.97;5109349;28;20052;-61
2022/03/22 09:02:48;;;;;;;22.92;14.25;;;;;;;15.49;36.28;101489.97;5109514;28;20419;-62
2022/03/22 09:08:05;;;;;;;20.95;13.80;;;;;;;15.67;35.88;101487.31;5111048;28;20051;-61
2022/03/22 09:10:34;;;;;;;20.05;13.40;;;;;;;15.74;35.69;101481.59;5110617;28;20090;-63
2022/03/22 09:13:02;;;;;;;17.83;12.85;;;;;;;15.83;35.03;101484.72;5109487;28;20059;-62
2022/03/22 09:15:29;;;;;;;15.65;12.20;;;;;;;15.88;35.16;101483.56;5109410;28;20043;-60
2022/03/22 09:17:57;;;;;;;18.20;12.73;;;;;;;15.94;34.78;101479.75;5110471;28;20443;-62
2022/03/22 09:20:25;;;;;;;28.92;14.05;;;;;;;16.01;34.71;101475.00;5110203;28;20044;-61
2022/03/22 09:23:37;;;;;;;20.30;12.85;;;;;;;16.04;34.42;101476.63;5109407;28;20091;-61
2022/03/22 09:26:03;;;;;;;17.85;12.02;;;;;;;16.15;34.30;101468.97;5109558;28;20047;-62
2022/03/22 09:28:31;;;;;;;20.48;11.98;;;;;;;16.22;34.40;101474.81;5110712;28;20051;-61
2022/03/22 09:30:58;;;;;;;21.33;13.27;;;;;;;16.28;34.52;101472.66;5109296;28;20054;-62
2022/03/22 09:33:38;;;;;;;20.50;13.65;;;;;;;16.33;34.60;101463.59;5110584;28;20478;-61
2022/03/22 09:36:06;;;;;;;22.67;13.82;;;;;;;16.46;34.30;101469.97;5109517;28;20997;-62
2022/03/22 09:38:33;;;;;;;22.67;13.30;;;;;;;16.55;34.36;101473.91;5109546;28;20510;-62
2022/03/22 09:41:00;;;;;;;17.77;11.98;;;;;;;16.62;34.06;101474.41;5111422;28;20044;-63
2022/03/22 09:43:28;;;;;;;23.73;14.50;;;;;;;16.69;34.19;101475.81;5114276;28;20050;-61
2022/03/22 09:45:57;;;;;;;17.48;12.25;;;;;;;16.75;33.48;101467.47;5112861;28;20051;-61
2022/03/22 09:48:25;;;;;;;21.08;12.85;;;;;;;16.83;33.40;101463.53;5114048;28;20138;-62
2022/03/22 09:53:37;;;;;;;19.58;11.80;;;;;;;16.99;33.03;101472.38;5114410;28;20051;-63
2022/03/22 09:56:07;;;;;;;20.27;12.23;;;;;;;17.07;33.44;101471.97;5114127;28;20047;-68
2022/03/22 09:58:35;;;;;;;17.35;11.05;;;;;;;17.18;32.70;101474.00;5114069;28;20128;-61
2022/03/22 10:01:02;;;;;;;18.38;10.93;;;;;;;17.26;32.83;101466.44;5113374;28;20074;-63
2022/03/22 10:03:28;;;;;;;19.35;12.80;;;;;;;17.37;32.58;101464.94;5113885;28;20058;-61
2022/03/22 10:06:00;;;;;;;16.17;11.65;;;;;;;17.47;33.01;101471.47;5113915;28;20043;-61
2022/03/22 10:08:27;;;;;;;17.73;12.07;;;;;;;17.59;32.46;101469.88;5112617;28;20495;-62
2022/03/22 10:10:56;;;;;;;20.20;12.50;;;;;;;17.70;32.51;101469.22;5113532;28;20065;-61
2022/03/22 10:13:22;;;;;;;15.55;11.63;;;;;;;17.81;32.27;101461.47;5113667;28;20116;-62
2022/03/22 10:15:49;;;;;;;16.48;11.30;;;;;;;17.92;32.14;101457.28;5113562;28;20047;-60
2022/03/22 10:18:23;;;;;;;15.05;11.25;;;;;;;17.99;31.16;101461.28;5113524;28;20055;-61
2022/03/22 10:20:59;;;;;;;13.82;10.55;;;;;;;18.09;31.08;101462.47;5113536;28;20043;-61
2022/03/22 10:23:26;;;;;;;13.95;10.82;;;;;;;18.22;31.49;101459.91;5112337;28;20059;-62
2022/03/22 10:26:07;;;;;;;24.35;11.95;;;;;;;18.32;30.72;101462.81;5112140;28;20055;-61
2022/03/22 10:28:35;;;;;;;22.63;12.27;;;;;;;18.48;30.64;101462.75;5112419;28;20059;-61
2022/03/22 10:31:02;;;;;;;15.07;10.57;;;;;;;18.58;30.54;101457.66;5111902;28;20040;-60
2022/03/22 10:33:29;;;;;;;16.88;10.90;;;;;;;18.70;30.74;101452.50;5112136;28;20054;-61
2022/03/22 10:35:56;;;;;;;16.23;11.00;;;;;;;18.81;30.83;101444.69;5113364;28;20077;-62
2022/03/22 10:38:23;;;;;;;16.60;11.73;;;;;;;18.94;31.14;101446.50;5113166;28;20136;-61
2022/03/22 10:40:50;;;;;;;13.93;11.25;;;;;;;19.08;31.17;101445.66;5112733;28;20077;-60
2022/03/22 10:43:22;;;;;;;15.25;11.50;;;;;;;19.21;30.92;101438.53;5112933;28;20621;-62
2022/03/22 10:45:58;;;;;;;15.90;10.27;;;;;;;19.35;31.37;101437.59;5112856;28;20712;-61
2022/03/22 10:48:30;;;;;;;14.73;10.85;;;;;;;19.53;30.59;101437.31;5111657;28;20040;-60
2022/03/22 10:50:59;;;;;;;15.33;11.77;;;;;;;19.66;31.13;101440.00;5111241;28;20047;-64
2022/03/22 10:53:28;;;;;;;19.27;11.88;;;;;;;19.81;31.26;101442.59;5111659;28;20043;-62
2022/03/22 10:55:57;;;;;;;18.10;11.45;;;;;;;19.95;31.28;101438.97;5112775;28;20056;-62
2022/03/22 10:58:27;;;;;;;17.40;11.85;;;;;;;20.08;30.98;101437.16;5112749;28;20047;-61
2022/03/22 11:00:55;;;;;;;15.00;11.43;;;;;;;20.23;30.50;101440.56;5111023;28;20051;-61
2022/03/22 11:03:24;;;;;;;14.55;11.80;;;;;;;20.38;31.02;101437.75;5111373;28;20044;-62
2022/03/22 11:05:54;;;;;;;15.00;11.35;;;;;;;20.53;30.32;101441.13;5111149;28;20099;-62
2022/03/22 11:08:25;;;;;;;17.33;12.48;;;;;;;20.68;30.27;101437.31;5111246;28;20057;-61
2022/03/22 11:10:54;;;;;;;17.85;11.82;;;;;;;20.83;30.32;101434.50;5112326;28;20056;-60
2022/03/22 11:13:24;;;;;;;18.33;12.25;;;;;;;20.96;30.18;101435.31;5111159;28;20051;-62
2022/03/22 11:15:51;;;;;;;18.08;11.73;;;;;;;21.17;30.58;101431.16;5112115;28;20047;-62
2022/03/22 11:18:20;;;;;;;19.65;12.85;;;;;;;21.38;30.95;101428.66;5111087;28;20120;-62
2022/03/22 11:20:52;;;;;;;18.58;12.05;;;;;;;21.69;30.97;101418.28;5110703;28;20149;-62
2022/03/22 11:23:21;;;;;;;16.58;11.90;;;;;;;22.13;30.88;101423.78;5112269;28;20465;-61
2022/03/22 11:25:47;;;;;;;17.38;12.55;;;;;;;22.61;31.32;101419.13;5112077;28;20489;-61
2022/03/22 11:28:19;;;;;;;20.27;12.50;;;;;;;23.21;30.27;101425.84;5112103;28;20134;-62
2022/03/22 11:30:47;;;;;;;21.07;12.60;;;;;;;23.89;30.85;101416.53;5110766;28;20404;-62
2022/03/22 11:36:14;;;;;;;15.52;12.13;;;;;;;25.40;28.41;101412.09;5111905;28;20453;-61
2022/03/22 11:39:02;;;;;;;17.17;13.20;;;;;;;26.10;27.92;101410.91;5111794;28;20054;-61
2022/03/22 11:44:27;;;;;;;16.97;12.70;;;;;;;27.31;26.56;101406.22;5111912;28;20469;-62
2022/03/22 11:47:14;;;;;;;17.02;12.10;;;;;;;27.80;26.16;101411.13;5111614;27;20803;-63
2022/03/22 11:49:50;;;;;;;13.65;12.20;;;;;;;28.31;25.60;101398.66;5111459;28;20051;-62